sensor_id;sensor_type;location;lat;lon;timestamp;P1;durP1;ratioP1;P2;durP2;ratioP2
946;SDS011;460;48.734;9.152;2022-11-13T00:02:03;3.15;;;2.50;;
946;SDS011;460;48.734;9.152;2022-11-13T00:04:31;3.00;;;2.90;;
946;SDS011;460;48.734;9.152;2022-11-13T00:06:57;3.70;;;1.98;;
946;SDS011;460;48.734;9.152;2022-11-13T00:09:24;3.33;;;3.03;;
946;SDS011;460;48.734;9.152;2022-11-13T00:11:51;2.83;;;2.08;;
946;SDS011;460;48.734;9.152;2022-11-13T00:14:18;2.47;;;2.20;;
946;SDS011;460;48.734;9.152;2022-11-13T00:16:45;3.88;;;2.45;;
946;SDS011;460;48.734;9.152;2022-11-13T00:19:13;4.00;;;2.75;;
946;SDS011;460;48.734;9.152;2022-11-13T00:21:40;2.53;;;2.33;;
946;SDS011;460;48.734;9.152;2022-11-13T00:24:07;7.22;;;3.20;;
946;SDS011;460;48.734;9.152;2022-11-13T00:26:33;3.53;;;2.63;;
946;SDS011;460;48.734;9.152;2022-11-13T00:29:01;3.75;;;2.60;;
946;SDS011;460;48.734;9.152;2022-11-13T00:31:28;2.65;;;1.77;;
946;SDS011;460;48.734;9.152;2022-11-13T00:33:56;2.20;;;1.40;;
946;SDS011;460;48.734;9.152;2022-11-13T00:36:25;2.33;;;2.20;;
946;SDS011;460;48.734;9.152;2022-11-13T00:38:53;1.80;;;1.70;;
946;SDS011;460;48.734;9.152;2022-11-13T00:41:20;2.63;;;2.35;;
946;SDS011;460;48.734;9.152;2022-11-13T00:43:47;4.15;;;3.22;;
946;SDS011;460;48.734;9.152;2022-11-13T00:46:14;1.35;;;1.35;;
946;SDS011;460;48.734;9.152;2022-11-13T00:48:41;1.92;;;1.73;;
946;SDS011;460;48.734;9.152;2022-11-13T00:51:08;4.55;;;2.20;;
946;SDS011;460;48.734;9.152;2022-11-13T00:53:36;3.60;;;2.15;;
946;SDS011;460;48.734;9.152;2022-11-13T00:56:03;2.75;;;1.73;;
946;SDS011;460;48.734;9.152;2022-11-13T00:58:31;2.42;;;2.22;;
946;SDS011;460;48.734;9.152;2022-11-13T01:01:02;2.28;;;2.05;;
946;SDS011;460;48.734;9.152;2022-11-13T01:03:31;4.10;;;2.42;;
946;SDS011;460;48.734;9.152;2022-11-13T01:05:57;2.88;;;2.25;;
946;SDS011;460;48.734;9.152;2022-11-13T01:08:24;2.50;;;2.30;;
946;SDS011;460;48.734;9.152;2022-11-13T01:10:53;6.45;;;3.50;;
946;SDS011;460;48.734;9.152;2022-11-13T01:13:19;2.30;;;1.65;;
946;SDS011;460;48.734;9.152;2022-11-13T01:15:46;2.75;;;2.55;;
946;SDS011;460;48.734;9.152;2022-11-13T01:18:13;3.78;;;2.13;;
946;SDS011;460;48.734;9.152;2022-11-13T01:20:40;2.65;;;2.45;;
946;SDS011;460;48.734;9.152;2022-11-13T01:23:06;2.08;;;1.98;;
946;SDS011;460;48.734;9.152;2022-11-13T01:25:33;4.00;;;1.90;;
946;SDS011;460;48.734;9.152;2022-11-13T01:28:01;1.95;;;1.83;;
946;SDS011;460;48.734;9.152;2022-11-13T01:30:28;4.35;;;1.63;;
946;SDS011;460;48.734;9.152;2022-11-13T01:32:55;2.83;;;2.53;;
946;SDS011;460;48.734;9.152;2022-11-13T01:35:22;1.40;;;1.30;;
946;SDS011;460;48.734;9.152;2022-11-13T01:37:49;4.47;;;2.45;;
946;SDS011;460;48.734;9.152;2022-11-13T01:40:15;3.60;;;2.28;;
946;SDS011;460;48.734;9.152;2022-11-13T01:42:42;4.30;;;3.22;;
946;SDS011;460;48.734;9.152;2022-11-13T01:48:24;3.53;;;2.10;;
946;SDS011;460;48.734;9.152;2022-11-13T01:50:57;2.33;;;1.70;;
946;SDS011;460;48.734;9.152;2022-11-13T01:53:24;3.45;;;1.95;;
946;SDS011;460;48.734;9.152;2022-11-13T01:55:51;3.80;;;2.13;;
946;SDS011;460;48.734;9.152;2022-11-13T01:58:19;3.15;;;2.35;;
946;SDS011;460;48.734;9.152;2022-11-13T02:00:46;2.25;;;2.03;;
946;SDS011;460;48.734;9.152;2022-11-13T02:03:14;2.17;;;1.98;;
946;SDS011;460;48.734;9.152;2022-11-13T02:05:41;2.80;;;1.58;;
946;SDS011;460;48.734;9.152;2022-11-13T02:08:08;3.15;;;1.77;;
946;SDS011;460;48.734;9.152;2022-11-13T02:10:35;1.52;;;1.42;;
946;SDS011;460;48.734;9.152;2022-11-13T02:13:02;2.65;;;2.00;;
946;SDS011;460;48.734;9.152;2022-11-13T02:15:30;2.90;;;1.70;;
946;SDS011;460;48.734;9.152;2022-11-13T02:17:59;7.40;;;1.98;;
946;SDS011;460;48.734;9.152;2022-11-13T02:20:31;2.10;;;1.90;;
946;SDS011;460;48.734;9.152;2022-11-13T02:23:07;2.05;;;1.80;;
946;SDS011;460;48.734;9.152;2022-11-13T02:25:43;3.22;;;2.88;;
946;SDS011;460;48.734;9.152;2022-11-13T02:28:13;1.45;;;1.42;;
946;SDS011;460;48.734;9.152;2022-11-13T02:30:40;2.35;;;2.15;;
946;SDS011;460;48.734;9.152;2022-11-13T02:33:18;2.15;;;1.95;;
946;SDS011;460;48.734;9.152;2022-11-13T02:35:49;6.63;;;2.20;;
946;SDS011;460;48.734;9.152;2022-11-13T02:38:17;2.38;;;2.17;;
946;SDS011;460;48.734;9.152;2022-11-13T02:40:45;2.63;;;2.47;;
946;SDS011;460;48.734;9.152;2022-11-13T02:43:12;3.03;;;2.80;;
946;SDS011;460;48.734;9.152;2022-11-13T02:45:39;3.20;;;2.20;;
946;SDS011;460;48.734;9.152;2022-11-13T02:48:06;1.35;;;1.27;;
946;SDS011;460;48.734;9.152;2022-11-13T02:50:34;2.00;;;1.42;;
946;SDS011;460;48.734;9.152;2022-11-13T02:53:02;1.70;;;1.60;;
946;SDS011;460;48.734;9.152;2022-11-13T02:55:30;4.15;;;2.10;;
946;SDS011;460;48.734;9.152;2022-11-13T02:57:58;2.60;;;2.40;;
946;SDS011;460;48.734;9.152;2022-11-13T03:00:25;1.58;;;1.48;;
946;SDS011;460;48.734;9.152;2022-11-13T03:02:52;2.60;;;1.90;;
946;SDS011;460;48.734;9.152;2022-11-13T03:05:20;1.67;;;1.58;;
946;SDS011;460;48.734;9.152;2022-11-13T03:07:47;1.60;;;0.90;;
946;SDS011;460;48.734;9.152;2022-11-13T03:10:14;1.58;;;1.48;;
946;SDS011;460;48.734;9.152;2022-11-13T03:12:41;2.45;;;2.25;;
946;SDS011;460;48.734;9.152;2022-11-13T03:15:09;2.22;;;1.58;;
946;SDS011;460;48.734;9.152;2022-11-13T03:17:36;1.65;;;1.55;;
946;SDS011;460;48.734;9.152;2022-11-13T03:20:03;2.90;;;2.70;;
946;SDS011;460;48.734;9.152;2022-11-13T03:22:32;2.17;;;1.50;;
946;SDS011;460;48.734;9.152;2022-11-13T03:24:59;2.00;;;1.83;;
946;SDS011;460;48.734;9.152;2022-11-13T03:27:25;1.70;;;1.60;;
946;SDS011;460;48.734;9.152;2022-11-13T03:29:53;1.42;;;1.33;;
946;SDS011;460;48.734;9.152;2022-11-13T03:32:21;2.60;;;1.30;;
946;SDS011;460;48.734;9.152;2022-11-13T03:34:48;1.65;;;1.55;;
946;SDS011;460;48.734;9.152;2022-11-13T03:37:15;1.98;;;1.77;;
946;SDS011;460;48.734;9.152;2022-11-13T03:39:42;5.53;;;3.97;;
946;SDS011;460;48.734;9.152;2022-11-13T03:42:09;2.35;;;1.70;;
946;SDS011;460;48.734;9.152;2022-11-13T03:44:36;2.35;;;1.67;;
946;SDS011;460;48.734;9.152;2022-11-13T03:47:03;2.63;;;2.42;;
946;SDS011;460;48.734;9.152;2022-11-13T03:49:31;3.92;;;2.45;;
946;SDS011;460;48.734;9.152;2022-11-13T03:51:58;1.58;;;1.48;;
946;SDS011;460;48.734;9.152;2022-11-13T03:54:25;2.28;;;2.03;;
946;SDS011;460;48.734;9.152;2022-11-13T03:56:53;2.15;;;1.98;;
946;SDS011;460;48.734;9.152;2022-11-13T03:59:20;5.60;;;2.17;;
946;SDS011;460;48.734;9.152;2022-11-13T04:01:46;3.33;;;2.35;;
946;SDS011;460;48.734;9.152;2022-11-13T04:04:13;3.28;;;3.08;;
946;SDS011;460;48.734;9.152;2022-11-13T04:06:42;1.38;;;1.27;;
946;SDS011;460;48.734;9.152;2022-11-13T04:09:09;3.20;;;2.38;;
946;SDS011;460;48.734;9.152;2022-11-13T04:11:36;1.85;;;1.75;;
946;SDS011;460;48.734;9.152;2022-11-13T04:14:03;3.17;;;1.45;;
946;SDS011;460;48.734;9.152;2022-11-13T04:16:29;2.80;;;1.77;;
946;SDS011;460;48.734;9.152;2022-11-13T04:18:56;2.40;;;1.90;;
946;SDS011;460;48.734;9.152;2022-11-13T04:21:23;2.80;;;2.17;;
946;SDS011;460;48.734;9.152;2022-11-13T04:23:53;1.15;;;1.05;;
946;SDS011;460;48.734;9.152;2022-11-13T04:26:19;2.42;;;1.10;;
946;SDS011;460;48.734;9.152;2022-11-13T04:28:46;1.95;;;1.85;;
946;SDS011;460;48.734;9.152;2022-11-13T04:31:13;7.93;;;2.72;;
946;SDS011;460;48.734;9.152;2022-11-13T04:33:40;4.75;;;2.15;;
946;SDS011;460;48.734;9.152;2022-11-13T04:36:07;0.65;;;0.65;;
946;SDS011;460;48.734;9.152;2022-11-13T04:38:34;4.72;;;2.33;;
946;SDS011;460;48.734;9.152;2022-11-13T04:41:02;1.38;;;1.27;;
946;SDS011;460;48.734;9.152;2022-11-13T04:43:47;2.78;;;1.58;;
946;SDS011;460;48.734;9.152;2022-11-13T04:46:13;2.38;;;2.17;;
946;SDS011;460;48.734;9.152;2022-11-13T04:48:40;1.35;;;1.35;;
946;SDS011;460;48.734;9.152;2022-11-13T04:51:07;3.53;;;2.47;;
946;SDS011;460;48.734;9.152;2022-11-13T04:53:34;3.97;;;2.42;;
946;SDS011;460;48.734;9.152;2022-11-13T04:56:00;2.45;;;2.15;;
946;SDS011;460;48.734;9.152;2022-11-13T04:58:29;1.42;;;1.33;;
946;SDS011;460;48.734;9.152;2022-11-13T05:00:56;4.32;;;1.42;;
946;SDS011;460;48.734;9.152;2022-11-13T05:03:22;2.63;;;1.92;;
946;SDS011;460;48.734;9.152;2022-11-13T05:05:49;2.72;;;2.25;;
946;SDS011;460;48.734;9.152;2022-11-13T05:08:16;2.80;;;2.60;;
946;SDS011;460;48.734;9.152;2022-11-13T05:10:43;2.13;;;1.95;;
946;SDS011;460;48.734;9.152;2022-11-13T05:13:11;1.65;;;1.55;;
946;SDS011;460;48.734;9.152;2022-11-13T05:15:38;2.25;;;1.58;;
946;SDS011;460;48.734;9.152;2022-11-13T05:18:04;1.55;;;1.45;;
946;SDS011;460;48.734;9.152;2022-11-13T05:20:31;2.38;;;2.17;;
946;SDS011;460;48.734;9.152;2022-11-13T05:22:58;1.67;;;1.58;;
946;SDS011;460;48.734;9.152;2022-11-13T05:25:25;2.08;;;1.98;;
946;SDS011;460;48.734;9.152;2022-11-13T05:27:51;3.10;;;2.80;;
946;SDS011;460;48.734;9.152;2022-11-13T05:30:20;1.35;;;1.35;;
946;SDS011;460;48.734;9.152;2022-11-13T05:32:46;1.92;;;1.80;;
946;SDS011;460;48.734;9.152;2022-11-13T05:35:13;3.80;;;2.30;;
946;SDS011;460;48.734;9.152;2022-11-13T05:37:40;0.80;;;0.80;;
946;SDS011;460;48.734;9.152;2022-11-13T05:40:07;3.58;;;2.47;;
946;SDS011;460;48.734;9.152;2022-11-13T05:42:35;3.90;;;2.40;;
946;SDS011;460;48.734;9.152;2022-11-13T05:45:02;3.63;;;3.38;;
946;SDS011;460;48.734;9.152;2022-11-13T05:47:31;1.73;;;1.63;;
946;SDS011;460;48.734;9.152;2022-11-13T05:49:57;2.22;;;2.03;;
946;SDS011;460;48.734;9.152;2022-11-13T05:52:24;1.85;;;1.67;;
946;SDS011;460;48.734;9.152;2022-11-13T05:54:51;1.08;;;1.00;;
946;SDS011;460;48.734;9.152;2022-11-13T05:57:18;1.77;;;1.48;;
946;SDS011;460;48.734;9.152;2022-11-13T05:59:45;1.08;;;0.90;;
946;SDS011;460;48.734;9.152;2022-11-13T06:02:11;1.10;;;1.10;;
946;SDS011;460;48.734;9.152;2022-11-13T06:04:40;0.75;;;0.75;;
946;SDS011;460;48.734;9.152;2022-11-13T06:07:06;1.27;;;1.25;;
946;SDS011;460;48.734;9.152;2022-11-13T06:09:33;2.30;;;1.88;;
946;SDS011;460;48.734;9.152;2022-11-13T06:12:00;2.50;;;2.33;;
946;SDS011;460;48.734;9.152;2022-11-13T06:14:27;1.88;;;1.77;;
946;SDS011;460;48.734;9.152;2022-11-13T06:16:53;2.60;;;1.67;;
946;SDS011;460;48.734;9.152;2022-11-13T06:19:20;2.35;;;1.90;;
946;SDS011;460;48.734;9.152;2022-11-13T06:21:48;3.22;;;2.72;;
946;SDS011;460;48.734;9.152;2022-11-13T06:24:15;1.73;;;1.17;;
946;SDS011;460;48.734;9.152;2022-11-13T06:26:42;3.20;;;1.52;;
946;SDS011;460;48.734;9.152;2022-11-13T06:29:10;1.38;;;1.30;;
946;SDS011;460;48.734;9.152;2022-11-13T06:31:37;2.45;;;2.35;;
946;SDS011;460;48.734;9.152;2022-11-13T06:34:05;1.65;;;1.58;;
946;SDS011;460;48.734;9.152;2022-11-13T06:36:33;2.97;;;2.78;;
946;SDS011;460;48.734;9.152;2022-11-13T06:39:05;1.50;;;1.40;;
946;SDS011;460;48.734;9.152;2022-11-13T06:41:32;2.45;;;1.48;;
946;SDS011;460;48.734;9.152;2022-11-13T06:43:59;1.75;;;1.65;;
946;SDS011;460;48.734;9.152;2022-11-13T06:46:27;1.40;;;1.30;;
946;SDS011;460;48.734;9.152;2022-11-13T06:48:54;3.15;;;2.85;;
946;SDS011;460;48.734;9.152;2022-11-13T06:51:22;3.15;;;2.85;;
946;SDS011;460;48.734;9.152;2022-11-13T06:53:52;2.58;;;2.35;;
946;SDS011;460;48.734;9.152;2022-11-13T06:56:20;3.50;;;3.20;;
946;SDS011;460;48.734;9.152;2022-11-13T06:58:47;2.33;;;2.05;;
946;SDS011;460;48.734;9.152;2022-11-13T07:01:17;1.95;;;1.85;;
946;SDS011;460;48.734;9.152;2022-11-13T07:03:46;2.40;;;2.20;;
946;SDS011;460;48.734;9.152;2022-11-13T07:06:13;2.67;;;1.98;;
946;SDS011;460;48.734;9.152;2022-11-13T07:08:42;3.53;;;3.17;;
946;SDS011;460;48.734;9.152;2022-11-13T07:11:10;7.22;;;2.97;;
946;SDS011;460;48.734;9.152;2022-11-13T07:13:40;1.73;;;1.25;;
946;SDS011;460;48.734;9.152;2022-11-13T07:16:08;5.03;;;2.67;;
946;SDS011;460;48.734;9.152;2022-11-13T07:18:36;2.03;;;1.92;;
946;SDS011;460;48.734;9.152;2022-11-13T07:21:03;1.65;;;1.55;;
946;SDS011;460;48.734;9.152;2022-11-13T07:23:31;1.60;;;1.50;;
946;SDS011;460;48.734;9.152;2022-11-13T07:26:00;1.90;;;1.80;;
946;SDS011;460;48.734;9.152;2022-11-13T07:28:27;2.35;;;2.15;;
946;SDS011;460;48.734;9.152;2022-11-13T07:30:57;2.80;;;2.00;;
946;SDS011;460;48.734;9.152;2022-11-13T07:33:24;1.15;;;1.02;;
946;SDS011;460;48.734;9.152;2022-11-13T07:35:51;2.70;;;2.50;;
946;SDS011;460;48.734;9.152;2022-11-13T07:38:19;4.20;;;3.00;;
946;SDS011;460;48.734;9.152;2022-11-13T07:40:46;2.42;;;2.05;;
946;SDS011;460;48.734;9.152;2022-11-13T07:43:13;4.05;;;2.53;;
946;SDS011;460;48.734;9.152;2022-11-13T07:45:40;4.38;;;2.70;;
946;SDS011;460;48.734;9.152;2022-11-13T07:48:08;3.45;;;2.25;;
946;SDS011;460;48.734;9.152;2022-11-13T07:50:36;7.03;;;1.90;;
946;SDS011;460;48.734;9.152;2022-11-13T07:53:04;2.58;;;2.47;;
946;SDS011;460;48.734;9.152;2022-11-13T07:55:32;1.42;;;1.33;;
946;SDS011;460;48.734;9.152;2022-11-13T07:57:59;2.00;;;1.80;;
946;SDS011;460;48.734;9.152;2022-11-13T08:00:26;4.85;;;1.80;;
946;SDS011;460;48.734;9.152;2022-11-13T08:02:54;1.38;;;1.25;;
946;SDS011;460;48.734;9.152;2022-11-13T08:05:23;2.42;;;1.60;;
946;SDS011;460;48.734;9.152;2022-11-13T08:07:50;1.38;;;1.27;;
946;SDS011;460;48.734;9.152;2022-11-13T08:10:18;3.17;;;2.88;;
946;SDS011;460;48.734;9.152;2022-11-13T08:12:45;3.22;;;2.38;;
946;SDS011;460;48.734;9.152;2022-11-13T08:15:13;1.63;;;1.52;;
946;SDS011;460;48.734;9.152;2022-11-13T08:17:40;3.03;;;1.98;;
946;SDS011;460;48.734;9.152;2022-11-13T08:20:07;3.53;;;2.40;;
946;SDS011;460;48.734;9.152;2022-11-13T08:22:36;1.33;;;1.20;;
946;SDS011;460;48.734;9.152;2022-11-13T08:25:03;3.08;;;2.33;;
946;SDS011;460;48.734;9.152;2022-11-13T08:27:30;3.20;;;2.65;;
946;SDS011;460;48.734;9.152;2022-11-13T08:29:57;2.10;;;1.98;;
946;SDS011;460;48.734;9.152;2022-11-13T08:32:24;2.90;;;2.67;;
946;SDS011;460;48.734;9.152;2022-11-13T08:34:51;1.45;;;1.35;;
946;SDS011;460;48.734;9.152;2022-11-13T08:37:18;1.83;;;1.33;;
946;SDS011;460;48.734;9.152;2022-11-13T08:39:46;2.45;;;2.25;;
946;SDS011;460;48.734;9.152;2022-11-13T08:42:13;2.92;;;1.70;;
946;SDS011;460;48.734;9.152;2022-11-13T08:44:39;1.98;;;1.85;;
946;SDS011;460;48.734;9.152;2022-11-13T08:47:06;2.08;;;1.95;;
946;SDS011;460;48.734;9.152;2022-11-13T08:49:33;3.20;;;2.80;;
946;SDS011;460;48.734;9.152;2022-11-13T08:52:00;2.85;;;2.65;;
946;SDS011;460;48.734;9.152;2022-11-13T08:54:27;5.05;;;2.78;;
946;SDS011;460;48.734;9.152;2022-11-13T08:56:55;4.43;;;2.20;;
946;SDS011;460;48.734;9.152;2022-11-13T08:59:22;1.73;;;1.60;;
946;SDS011;460;48.734;9.152;2022-11-13T09:01:48;3.63;;;2.50;;
946;SDS011;460;48.734;9.152;2022-11-13T09:04:22;3.65;;;2.38;;
946;SDS011;460;48.734;9.152;2022-11-13T09:06:49;2.88;;;2.58;;
946;SDS011;460;48.734;9.152;2022-11-13T09:09:15;3.75;;;2.40;;
946;SDS011;460;48.734;9.152;2022-11-13T09:11:42;4.60;;;2.95;;
946;SDS011;460;48.734;9.152;2022-11-13T09:14:11;1.55;;;1.45;;
946;SDS011;460;48.734;9.152;2022-11-13T09:16:38;3.30;;;3.00;;
946;SDS011;460;48.734;9.152;2022-11-13T09:19:04;1.70;;;1.60;;
946;SDS011;460;48.734;9.152;2022-11-13T09:21:31;3.30;;;1.95;;
946;SDS011;460;48.734;9.152;2022-11-13T09:23:58;3.10;;;2.90;;
946;SDS011;460;48.734;9.152;2022-11-13T09:26:25;5.75;;;5.10;;
946;SDS011;460;48.734;9.152;2022-11-13T09:28:52;3.50;;;2.67;;
946;SDS011;460;48.734;9.152;2022-11-13T09:31:20;3.95;;;2.80;;
946;SDS011;460;48.734;9.152;2022-11-13T09:33:47;3.50;;;2.40;;
946;SDS011;460;48.734;9.152;2022-11-13T09:36:14;6.00;;;2.80;;
946;SDS011;460;48.734;9.152;2022-11-13T09:38:41;3.47;;;3.20;;
946;SDS011;460;48.734;9.152;2022-11-13T09:41:09;2.60;;;2.40;;
946;SDS011;460;48.734;9.152;2022-11-13T09:43:39;5.85;;;3.42;;
946;SDS011;460;48.734;9.152;2022-11-13T09:46:10;3.92;;;3.58;;
946;SDS011;460;48.734;9.152;2022-11-13T09:48:47;4.90;;;3.00;;
946;SDS011;460;48.734;9.152;2022-11-13T09:51:19;4.50;;;3.28;;
946;SDS011;460;48.734;9.152;2022-11-13T09:53:47;8.43;;;4.18;;
946;SDS011;460;48.734;9.152;2022-11-13T09:56:21;4.93;;;3.40;;
946;SDS011;460;48.734;9.152;2022-11-13T09:58:56;2.33;;;1.88;;
946;SDS011;460;48.734;9.152;2022-11-13T10:01:29;3.85;;;2.33;;
946;SDS011;460;48.734;9.152;2022-11-13T10:04:03;3.03;;;2.75;;
946;SDS011;460;48.734;9.152;2022-11-13T10:06:42;3.80;;;3.30;;
946;SDS011;460;48.734;9.152;2022-11-13T10:09:22;4.72;;;3.60;;
946;SDS011;460;48.734;9.152;2022-11-13T10:11:54;5.85;;;4.43;;
946;SDS011;460;48.734;9.152;2022-11-13T10:14:23;4.13;;;3.42;;
946;SDS011;460;48.734;9.152;2022-11-13T10:16:55;3.38;;;3.05;;
946;SDS011;460;48.734;9.152;2022-11-13T10:19:29;3.63;;;2.90;;
946;SDS011;460;48.734;9.152;2022-11-13T10:22:02;4.88;;;4.43;;
946;SDS011;460;48.734;9.152;2022-11-13T10:24:34;2.97;;;2.78;;
946;SDS011;460;48.734;9.152;2022-11-13T10:27:07;3.35;;;2.67;;
946;SDS011;460;48.734;9.152;2022-11-13T10:29:34;5.97;;;2.10;;
946;SDS011;460;48.734;9.152;2022-11-13T10:32:13;1.60;;;1.50;;
946;SDS011;460;48.734;9.152;2022-11-13T10:34:44;3.75;;;3.10;;
946;SDS011;460;48.734;9.152;2022-11-13T10:37:19;3.28;;;2.28;;
946;SDS011;460;48.734;9.152;2022-11-13T10:39:53;4.85;;;3.13;;
946;SDS011;460;48.734;9.152;2022-11-13T10:42:20;9.93;;;3.90;;
946;SDS011;460;48.734;9.152;2022-11-13T10:44:52;5.00;;;3.42;;
946;SDS011;460;48.734;9.152;2022-11-13T10:47:21;3.88;;;3.58;;
946;SDS011;460;48.734;9.152;2022-11-13T10:49:50;3.72;;;3.42;;
946;SDS011;460;48.734;9.152;2022-11-13T10:52:18;6.30;;;4.53;;
946;SDS011;460;48.734;9.152;2022-11-13T10:54:47;5.35;;;3.28;;
946;SDS011;460;48.734;9.152;2022-11-13T10:59:59;2.40;;;2.13;;
946;SDS011;460;48.734;9.152;2022-11-13T11:02:28;4.40;;;2.73;;
946;SDS011;460;48.734;9.152;2022-11-13T11:05:03;3.77;;;3.40;;
946;SDS011;460;48.734;9.152;2022-11-13T11:07:33;3.55;;;2.95;;
946;SDS011;460;48.734;9.152;2022-11-13T11:10:13;4.03;;;3.13;;
946;SDS011;460;48.734;9.152;2022-11-13T11:12:50;5.00;;;4.13;;
946;SDS011;460;48.734;9.152;2022-11-13T11:15:19;7.83;;;3.40;;
946;SDS011;460;48.734;9.152;2022-11-13T11:17:50;4.43;;;3.00;;
946;SDS011;460;48.734;9.152;2022-11-13T11:20:22;3.40;;;2.60;;
946;SDS011;460;48.734;9.152;2022-11-13T11:22:52;4.10;;;3.60;;
946;SDS011;460;48.734;9.152;2022-11-13T11:25:25;5.33;;;3.27;;
946;SDS011;460;48.734;9.152;2022-11-13T11:27:59;3.20;;;2.93;;
946;SDS011;460;48.734;9.152;2022-11-13T11:30:31;4.20;;;3.57;;
946;SDS011;460;48.734;9.152;2022-11-13T11:33:08;2.83;;;2.23;;
946;SDS011;460;48.734;9.152;2022-11-13T11:35:39;4.87;;;3.67;;
946;SDS011;460;48.734;9.152;2022-11-13T11:38:10;4.57;;;3.43;;
946;SDS011;460;48.734;9.152;2022-11-13T11:40:41;2.50;;;1.60;;
946;SDS011;460;48.734;9.152;2022-11-13T11:43:13;3.23;;;2.33;;
946;SDS011;460;48.734;9.152;2022-11-13T11:45:45;3.47;;;3.20;;
946;SDS011;460;48.734;9.152;2022-11-13T11:48:12;3.90;;;2.80;;
946;SDS011;460;48.734;9.152;2022-11-13T11:50:44;3.13;;;2.83;;
946;SDS011;460;48.734;9.152;2022-11-13T11:53:17;3.73;;;3.43;;
946;SDS011;460;48.734;9.152;2022-11-13T11:56:07;4.73;;;3.33;;
946;SDS011;460;48.734;9.152;2022-11-13T11:58:53;2.27;;;2.00;;
946;SDS011;460;48.734;9.152;2022-11-13T12:01:46;4.00;;;3.70;;
946;SDS011;460;48.734;9.152;2022-11-13T12:04:29;3.60;;;3.10;;
946;SDS011;460;48.734;9.152;2022-11-13T12:07:12;2.80;;;2.40;;
946;SDS011;460;48.734;9.152;2022-11-13T12:09:50;2.60;;;2.40;;
946;SDS011;460;48.734;9.152;2022-11-13T12:12:31;2.50;;;2.30;;
946;SDS011;460;48.734;9.152;2022-11-13T12:15:08;2.10;;;1.90;;
946;SDS011;460;48.734;9.152;2022-11-13T12:17:42;3.50;;;2.60;;
946;SDS011;460;48.734;9.152;2022-11-13T12:20:18;3.17;;;2.87;;
946;SDS011;460;48.734;9.152;2022-11-13T12:22:55;3.50;;;3.20;;
946;SDS011;460;48.734;9.152;2022-11-13T12:25:31;3.17;;;2.87;;
946;SDS011;460;48.734;9.152;2022-11-13T12:28:08;2.87;;;2.60;;
946;SDS011;460;48.734;9.152;2022-11-13T12:30:41;2.87;;;2.57;;
946;SDS011;460;48.734;9.152;2022-11-13T12:33:18;2.90;;;2.63;;
946;SDS011;460;48.734;9.152;2022-11-13T12:35:49;3.63;;;2.83;;
946;SDS011;460;48.734;9.152;2022-11-13T12:38:22;2.50;;;2.07;;
946;SDS011;460;48.734;9.152;2022-11-13T12:40:59;3.97;;;2.50;;
946;SDS011;460;48.734;9.152;2022-11-13T12:43:33;2.47;;;2.27;;
946;SDS011;460;48.734;9.152;2022-11-13T12:46:13;1.90;;;1.60;;
946;SDS011;460;48.734;9.152;2022-11-13T12:48:41;2.10;;;1.80;;
946;SDS011;460;48.734;9.152;2022-11-13T12:51:11;2.90;;;2.70;;
946;SDS011;460;48.734;9.152;2022-11-13T12:53:44;4.37;;;2.90;;
946;SDS011;460;48.734;9.152;2022-11-13T12:56:14;4.37;;;3.97;;
946;SDS011;460;48.734;9.152;2022-11-13T12:58:53;3.53;;;2.90;;
946;SDS011;460;48.734;9.152;2022-11-13T13:01:22;4.73;;;4.33;;
946;SDS011;460;48.734;9.152;2022-11-13T13:03:57;3.80;;;3.50;;
946;SDS011;460;48.734;9.152;2022-11-13T13:06:41;6.67;;;3.80;;
946;SDS011;460;48.734;9.152;2022-11-13T13:09:22;5.70;;;4.20;;
946;SDS011;460;48.734;9.152;2022-11-13T13:12:02;6.07;;;4.50;;
946;SDS011;460;48.734;9.152;2022-11-13T13:14:43;3.30;;;3.00;;
946;SDS011;460;48.734;9.152;2022-11-13T13:17:23;3.27;;;3.03;;
946;SDS011;460;48.734;9.152;2022-11-13T13:19:56;5.33;;;4.27;;
946;SDS011;460;48.734;9.152;2022-11-13T13:22:26;2.63;;;2.43;;
946;SDS011;460;48.734;9.152;2022-11-13T13:24:59;6.40;;;4.20;;
946;SDS011;460;48.734;9.152;2022-11-13T13:27:30;4.50;;;4.10;;
946;SDS011;460;48.734;9.152;2022-11-13T13:30:10;2.87;;;2.67;;
946;SDS011;460;48.734;9.152;2022-11-13T13:32:43;4.53;;;3.30;;
946;SDS011;460;48.734;9.152;2022-11-13T13:35:18;7.13;;;3.93;;
946;SDS011;460;48.734;9.152;2022-11-13T13:37:50;8.00;;;4.30;;
946;SDS011;460;48.734;9.152;2022-11-13T13:40:26;6.07;;;4.80;;
946;SDS011;460;48.734;9.152;2022-11-13T13:43:06;6.03;;;3.87;;
946;SDS011;460;48.734;9.152;2022-11-13T13:45:45;6.20;;;4.03;;
946;SDS011;460;48.734;9.152;2022-11-13T13:48:18;7.53;;;5.83;;
946;SDS011;460;48.734;9.152;2022-11-13T13:50:49;3.23;;;3.00;;
946;SDS011;460;48.734;9.152;2022-11-13T13:53:17;11.90;;;4.03;;
946;SDS011;460;48.734;9.152;2022-11-13T13:55:49;2.60;;;2.40;;
946;SDS011;460;48.734;9.152;2022-11-13T13:58:18;5.37;;;3.23;;
946;SDS011;460;48.734;9.152;2022-11-13T14:00:56;4.17;;;3.60;;
946;SDS011;460;48.734;9.152;2022-11-13T14:03:24;4.27;;;3.80;;
946;SDS011;460;48.734;9.152;2022-11-13T14:05:53;4.47;;;4.07;;
946;SDS011;460;48.734;9.152;2022-11-13T14:08:21;5.37;;;4.67;;
946;SDS011;460;48.734;9.152;2022-11-13T14:10:51;3.13;;;2.70;;
946;SDS011;460;48.734;9.152;2022-11-13T14:13:24;3.80;;;2.93;;
946;SDS011;460;48.734;9.152;2022-11-13T14:15:59;3.67;;;2.50;;
946;SDS011;460;48.734;9.152;2022-11-13T14:18:27;6.50;;;5.00;;
946;SDS011;460;48.734;9.152;2022-11-13T14:20:54;5.30;;;3.83;;
946;SDS011;460;48.734;9.152;2022-11-13T14:23:23;5.30;;;4.23;;
946;SDS011;460;48.734;9.152;2022-11-13T14:25:55;4.60;;;3.90;;
946;SDS011;460;48.734;9.152;2022-11-13T14:28:23;7.50;;;3.70;;
946;SDS011;460;48.734;9.152;2022-11-13T14:30:52;5.93;;;4.63;;
946;SDS011;460;48.734;9.152;2022-11-13T14:33:22;6.03;;;4.40;;
946;SDS011;460;48.734;9.152;2022-11-13T14:35:51;4.77;;;2.90;;
946;SDS011;460;48.734;9.152;2022-11-13T14:38:21;6.00;;;3.60;;
946;SDS011;460;48.734;9.152;2022-11-13T14:40:50;4.40;;;3.73;;
946;SDS011;460;48.734;9.152;2022-11-13T14:43:19;4.87;;;4.37;;
946;SDS011;460;48.734;9.152;2022-11-13T14:45:52;10.17;;;5.60;;
946;SDS011;460;48.734;9.152;2022-11-13T14:48:21;5.63;;;3.13;;
946;SDS011;460;48.734;9.152;2022-11-13T14:50:50;4.77;;;4.23;;
946;SDS011;460;48.734;9.152;2022-11-13T14:53:24;3.30;;;3.00;;
946;SDS011;460;48.734;9.152;2022-11-13T14:55:53;6.43;;;4.17;;
946;SDS011;460;48.734;9.152;2022-11-13T14:58:26;4.77;;;4.30;;
946;SDS011;460;48.734;9.152;2022-11-13T15:00:54;9.43;;;4.80;;
946;SDS011;460;48.734;9.152;2022-11-13T15:03:22;3.03;;;2.83;;
946;SDS011;460;48.734;9.152;2022-11-13T15:05:50;5.57;;;3.77;;
946;SDS011;460;48.734;9.152;2022-11-13T15:08:16;4.40;;;3.87;;
946;SDS011;460;48.734;9.152;2022-11-13T15:10:43;4.80;;;3.90;;
946;SDS011;460;48.734;9.152;2022-11-13T15:13:10;4.77;;;2.70;;
946;SDS011;460;48.734;9.152;2022-11-13T15:15:39;6.17;;;5.57;;
946;SDS011;460;48.734;9.152;2022-11-13T15:18:06;4.30;;;3.90;;
946;SDS011;460;48.734;9.152;2022-11-13T15:20:37;5.87;;;3.60;;
946;SDS011;460;48.734;9.152;2022-11-13T15:23:07;7.37;;;4.80;;
946;SDS011;460;48.734;9.152;2022-11-13T15:25:37;5.40;;;4.80;;
946;SDS011;460;48.734;9.152;2022-11-13T15:28:04;6.10;;;3.23;;
946;SDS011;460;48.734;9.152;2022-11-13T15:30:31;5.50;;;4.00;;
946;SDS011;460;48.734;9.152;2022-11-13T15:32:59;4.37;;;3.10;;
946;SDS011;460;48.734;9.152;2022-11-13T15:35:27;4.03;;;3.13;;
946;SDS011;460;48.734;9.152;2022-11-13T15:37:56;5.13;;;3.00;;
946;SDS011;460;48.734;9.152;2022-11-13T15:40:23;5.77;;;4.07;;
946;SDS011;460;48.734;9.152;2022-11-13T15:42:50;4.77;;;3.40;;
946;SDS011;460;48.734;9.152;2022-11-13T15:45:17;4.23;;;3.10;;
946;SDS011;460;48.734;9.152;2022-11-13T15:47:44;6.90;;;5.10;;
946;SDS011;460;48.734;9.152;2022-11-13T15:50:12;4.50;;;4.10;;
946;SDS011;460;48.734;9.152;2022-11-13T15:52:39;4.47;;;3.50;;
946;SDS011;460;48.734;9.152;2022-11-13T15:55:17;3.83;;;3.43;;
946;SDS011;460;48.734;9.152;2022-11-13T15:57:48;5.40;;;4.90;;
946;SDS011;460;48.734;9.152;2022-11-13T16:00:16;6.43;;;4.00;;
946;SDS011;460;48.734;9.152;2022-11-13T16:02:45;4.30;;;3.97;;
946;SDS011;460;48.734;9.152;2022-11-13T16:05:15;7.57;;;3.93;;